| time (UTC) | temp F | wind direction | speed knots | gust knots | rain 1hr in | rain 24hr in | rain mn in | humidity % | barometer mb |
| 20260503013621 | 62 | 131 | 1.7 | 1.7 | 0.00 | 0.00 | 0.00 | 41 | 1010.4 |
| 20260503013119 | 62 | 124 | 1.7 | 1.7 | 0.00 | 0.00 | 0.00 | 40 | 1010.1 |
| 20260503012616 | 62 | 165 | 0.0 | 0.9 | 0.00 | 0.00 | 0.00 | 40 | 1010.2 |
| 20260503012113 | 62 | 174 | 0.0 | 0.9 | 0.00 | 0.00 | 0.00 | 41 | 1010.3 |
| 20260503011609 | 62 | 157 | 0.0 | 0.9 | 0.00 | 0.00 | 0.00 | 41 | 1010.3 |
| 20260503011106 | 62 | 164 | 0.9 | 0.9 | 0.00 | 0.00 | 0.00 | 40 | 1010.5 |
| 20260503010602 | 62 | 162 | 0.0 | 0.0 | 0.00 | 0.00 | 0.00 | 41 | 1010.5 |
| 20260503010100 | 63 | 79 | 1.7 | 2.6 | 0.00 | 0.00 | 0.00 | 39 | 1010.4 |
| 20260503005557 | 63 | 160 | 4.3 | 7.8 | 0.00 | 0.00 | 0.00 | 38 | 1010.6 |
| 20260503005054 | 63 | 97 | 0.9 | 1.7 | 0.00 | 0.00 | 0.00 | 40 | 1010.8 |
| 20260503004550 | 63 | 168 | 1.7 | 1.7 | 0.00 | 0.00 | 0.00 | 37 | 1010.7 |
| 20260503004049 | 63 | 75 | 1.7 | 2.6 | 0.00 | 0.00 | 0.00 | 41 | 1010.7 |
| 20260503003545 | 63 | 134 | 0.9 | 0.9 | 0.00 | 0.00 | 0.00 | 42 | 1010.6 |
| 20260503003042 | 63 | 65 | 3.5 | 5.2 | 0.00 | 0.00 | 0.00 | 38 | 1010.7 |
| 20260503002539 | 63 | 55 | 1.7 | 2.6 | 0.00 | 0.00 | 0.00 | 40 | 1011.0 |
| 20260503002036 | 63 | 311 | 3.5 | 6.1 | 0.00 | 0.00 | 0.00 | 36 | 1010.9 |
| 20260503001532 | 63 | 149 | 0.0 | 0.9 | 0.00 | 0.00 | 0.00 | 40 | 1010.6 |
| 20260503001030 | 63 | 156 | 0.0 | 0.0 | 0.00 | 0.00 | 0.00 | 35 | 1010.7 |
| 20260503000527 | 63 | 160 | 0.0 | 0.9 | 0.00 | 0.00 | 0.00 | 41 | 1010.7 |
| 20260503000024 | 64 | 139 | 0.9 | 0.9 | 0.00 | 0.00 | 0.00 | 35 | 1010.6 |
| 20260502235520 | 64 | 178 | 0.9 | 0.9 | 0.00 | 0.00 | 0.00 | 35 | 1010.8 |
| 20260502235018 | 64 | 50 | 1.7 | 2.6 | 0.00 | 0.00 | 0.00 | 41 | 1011.0 |
| 20260502234514 | 64 | 110 | 0.9 | 0.9 | 0.00 | 0.00 | 0.00 | 43 | 1011.0 |
| 20260502234012 | 63 | 93 | 1.7 | 2.6 | 0.00 | 0.00 | 0.00 | 42 | 1011.0 |
| 20260502233512 | 63 | 168 | 0.9 | 1.7 | 0.00 | 0.00 | 0.00 | 37 | 1011.1 |
| 20260502233010 | 63 | 117 | 0.9 | 1.7 | 0.00 | 0.00 | 0.00 | 40 | 1011.2 |
| 20260502232506 | 63 | 152 | 0.0 | 0.0 | 0.00 | 0.00 | 0.00 | 39 | 1011.3 |
| 20260502232002 | 63 | 135 | 0.0 | 0.0 | 0.00 | 0.00 | 0.00 | 43 | 1011.4 |
| 20260502231500 | 63 | 25 | 1.7 | 2.6 | 0.00 | 0.00 | 0.00 | 39 | 1011.5 |
| 20260502230958 | 64 | 44 | 2.6 | 3.5 | 0.00 | 0.00 | 0.00 | 40 | 1011.7 |
| 20260502230455 | 64 | 99 | 2.6 | 3.5 | 0.00 | 0.00 | 0.00 | 37 | 1011.5 |
| 20260502225953 | 64 | 64 | 1.7 | 1.7 | 0.00 | 0.00 | 0.00 | 39 | 1011.5 |
| 20260502225449 | 64 | 140 | 0.9 | 0.9 | 0.00 | 0.00 | 0.00 | 36 | 1011.4 |
| 20260502224946 | 64 | 151 | 2.6 | 3.5 | 0.00 | 0.00 | 0.00 | 34 | 1011.6 |
| 20260502224442 | 64 | 224 | 0.0 | 0.9 | 0.00 | 0.00 | 0.00 | 38 | 1011.6 |
| 20260502223939 | 64 | 179 | 0.9 | 0.9 | 0.00 | 0.00 | 0.00 | 35 | 1011.6 |
| 20260502223437 | 64 | 126 | 0.0 | 0.9 | 0.00 | 0.00 | 0.00 | 36 | 1011.5 |
| 20260502222935 | 64 | 165 | 0.0 | 0.0 | 0.00 | 0.00 | 0.00 | 36 | 1011.8 |
| 20260502222433 | 64 | 132 | 1.7 | 1.7 | 0.00 | 0.00 | 0.00 | 34 | 1011.7 |
| 20260502221928 | 64 | 64 | 2.6 | 3.5 | 0.00 | 0.00 | 0.00 | 36 | 1011.6 |
| 20260502221425 | 65 | 146 | 1.7 | 1.7 | 0.00 | 0.00 | 0.00 | 34 | 1011.7 |
| 20260502220922 | 65 | 170 | 0.9 | 0.9 | 0.00 | 0.00 | 0.00 | 34 | 1011.8 |
| 20260502220417 | 64 | 156 | 0.0 | 0.9 | 0.00 | 0.00 | 0.00 | 39 | 1012.0 |
| 20260502215914 | 64 | 142 | 1.7 | 1.7 | 0.00 | 0.00 | 0.00 | 33 | 1011.9 |
| 20260502215412 | 64 | 154 | 1.7 | 2.6 | 0.00 | 0.00 | 0.00 | 35 | 1012.2 |
| 20260502214908 | 64 | 139 | 0.0 | 0.9 | 0.00 | 0.00 | 0.00 | 32 | 1012.3 |
| 20260502214405 | 64 | 149 | 0.9 | 0.9 | 0.00 | 0.00 | 0.00 | 37 | 1012.4 |
| 20260502213902 | 64 | 144 | 0.9 | 0.9 | 0.00 | 0.00 | 0.00 | 33 | 1012.5 |
| 20260502213359 | 64 | 114 | 0.9 | 0.9 | 0.00 | 0.00 | 0.00 | 38 | 1012.5 |
| 20260502212858 | 64 | 166 | 0.9 | 1.7 | 0.00 | 0.00 | 0.00 | 31 | 1012.6 |
| 20260502212356 | 66 | 122 | 1.7 | 2.6 | 0.00 | 0.00 | 0.00 | 31 | 1012.6 |
| 20260502211853 | 67 | 153 | 0.9 | 0.9 | 0.00 | 0.00 | 0.00 | 35 | 1012.8 |
| 20260502211348 | 66 | 12 | 2.6 | 2.6 | 0.00 | 0.00 | 0.00 | 39 | 1012.8 |
| 20260502210846 | 66 | 105 | 1.7 | 1.7 | 0.00 | 0.00 | 0.00 | 32 | 1013.0 |
| 20260502210343 | 68 | 159 | 3.5 | 5.2 | 0.00 | 0.00 | 0.00 | 33 | 1012.9 |
| 20260502205841 | 68 | 147 | 0.0 | 0.0 | 0.00 | 0.00 | 0.00 | 40 | 1013.1 |
| 20260502205336 | 68 | 11 | 2.6 | 2.6 | 0.00 | 0.00 | 0.00 | 34 | 1013.1 |
| 20260502204834 | 67 | 164 | 0.9 | 0.9 | 0.00 | 0.00 | 0.00 | 33 | 1013.3 |
| 20260502204331 | 67 | 307 | 2.6 | 3.5 | 0.00 | 0.00 | 0.00 | 34 | 1013.6 |
| 20260502203828 | 66 | 127 | 1.7 | 2.6 | 0.00 | 0.00 | 0.00 | 35 | 1013.5 |
| 20260502203326 | 65 | 80 | 3.5 | 6.1 | 0.00 | 0.00 | 0.00 | 36 | 1013.5 |
| 20260502202826 | 66 | 90 | 1.7 | 1.7 | 0.00 | 0.00 | 0.00 | 33 | 1013.7 |
| 20260502202324 | 65 | 272 | 0.9 | 1.7 | 0.00 | 0.00 | 0.00 | 35 | 1013.9 |
| 20260502201821 | 64 | 197 | 2.6 | 2.6 | 0.00 | 0.00 | 0.00 | 32 | 1013.9 |
| 20260502201317 | 64 | 248 | 2.6 | 5.2 | 0.00 | 0.00 | 0.00 | 31 | 1013.9 |
| 20260502200814 | 64 | 168 | 0.9 | 0.9 | 0.00 | 0.00 | 0.00 | 34 | 1014.2 |
| 20260502200310 | 63 | 290 | 3.5 | 5.2 | 0.00 | 0.00 | 0.00 | 34 | 1014.3 |
| 20260502195808 | 62 | 3 | 2.6 | 5.2 | 0.00 | 0.00 | 0.00 | 42 | 1014.5 |
| 20260502195305 | 62 | 172 | 0.9 | 1.7 | 0.00 | 0.00 | 0.00 | 34 | 1014.5 |
| 20260502194800 | 62 | 54 | 5.2 | 7.0 | 0.00 | 0.00 | 0.00 | 35 | 1014.5 |
| 20260502194258 | 63 | 65 | 1.7 | 3.5 | 0.00 | 0.00 | 0.00 | 33 | 1014.7 |
| 20260502193754 | 63 | 164 | 0.9 | 0.9 | 0.00 | 0.00 | 0.00 | 34 | 1014.6 |
| 20260502193251 | 62 | 76 | 1.7 | 1.7 | 0.00 | 0.00 | 0.00 | 38 | 1014.6 |
| 20260502192751 | 62 | 58 | 1.7 | 1.7 | 0.00 | 0.00 | 0.00 | 41 | 1014.8 |
| 20260502192249 | 62 | 103 | 0.0 | 0.0 | 0.00 | 0.00 | 0.00 | 37 | 1014.9 |
| 20260502191746 | 62 | 183 | 0.9 | 0.9 | 0.00 | 0.00 | 0.00 | 34 | 1015.1 |
| 20260502191244 | 62 | 52 | 0.9 | 0.9 | 0.00 | 0.00 | 0.00 | 38 | 1015.0 |
| 20260502190741 | 62 | 66 | 1.7 | 2.6 | 0.00 | 0.00 | 0.00 | 36 | 1015.2 |
| 20260502190238 | 62 | 136 | 1.7 | 1.7 | 0.00 | 0.00 | 0.00 | 33 | 1015.4 |
| 20260502185738 | 61 | 160 | 2.6 | 2.6 | 0.00 | 0.00 | 0.00 | 43 | 1015.4 |
| 20260502185235 | 61 | 111 | 1.7 | 1.7 | 0.00 | 0.00 | 0.00 | 34 | 1015.5 |
| 20260502184732 | 62 | 101 | 1.7 | 1.7 | 0.00 | 0.00 | 0.00 | 36 | 1015.4 |
| 20260502184227 | 61 | 174 | 1.7 | 1.7 | 0.00 | 0.00 | 0.00 | 37 | 1015.7 |
| 20260502183724 | 61 | 166 | 0.9 | 0.9 | 0.00 | 0.00 | 0.00 | 35 | 1015.8 |
| 20260502183220 | 61 | 27 | 1.7 | 1.7 | 0.00 | 0.00 | 0.00 | 34 | 1015.8 |
| 20260502182715 | 60 | 39 | 4.3 | 6.1 | 0.00 | 0.00 | 0.00 | 41 | 1015.7 |
| 20260502182211 | 60 | 191 | 5.2 | 7.0 | 0.00 | 0.00 | 0.00 | 39 | 1015.8 |
| 20260502181708 | 60 | 80 | 2.6 | 2.6 | 0.00 | 0.00 | 0.00 | 36 | 1015.9 |
| 20260502181208 | 60 | 125 | 0.9 | 1.7 | 0.00 | 0.00 | 0.00 | 36 | 1016.1 |
| 20260502180704 | 60 | 160 | 1.7 | 1.7 | 0.00 | 0.00 | 0.00 | 36 | 1016.2 |
| 20260502180201 | 60 | 78 | 3.5 | 6.1 | 0.00 | 0.00 | 0.00 | 41 | 1016.3 |
| 20260502170126 | 58 | 24 | 4.3 | 6.1 | 0.00 | 0.00 | 0.00 | 36 | 1017.2 |
| 20260502164112 | 58 | 46 | 1.7 | 2.6 | 0.00 | 0.00 | 0.00 | 43 | 1017.6 |
| 20260502163609 | 57 | 39 | 3.5 | 3.5 | 0.00 | 0.00 | 0.00 | 45 | 1017.5 |
| 20260502163105 | 57 | 110 | 0.9 | 0.9 | 0.00 | 0.00 | 0.00 | 40 | 1017.8 |
| 20260502162602 | 56 | 66 | 1.7 | 1.7 | 0.00 | 0.00 | 0.00 | 40 | 1017.6 |
| 20260502162059 | 57 | 50 | 1.7 | 2.6 | 0.00 | 0.00 | 0.00 | 40 | 1017.8 |
| 20260502161556 | 57 | 105 | 1.7 | 3.5 | 0.00 | 0.00 | 0.00 | 37 | 1017.8 |
| 20260502161053 | 57 | 155 | 0.9 | 1.7 | 0.00 | 0.00 | 0.00 | 36 | 1017.9 |
| 20260502160551 | 56 | 118 | 1.7 | 1.7 | 0.00 | 0.00 | 0.00 | 43 | 1017.9 |
| 20260502151958 | 56 | 43 | 1.7 | 1.7 | 0.00 | 0.00 | 0.00 | 44 | 1018.4 |
| 20260502151455 | 56 | 101 | 0.9 | 0.9 | 0.00 | 0.00 | 0.00 | 47 | 1018.3 |
| 20260502150952 | 55 | 37 | 1.7 | 2.6 | 0.00 | 0.00 | 0.00 | 47 | 1018.5 |
| 20260502150449 | 55 | 63 | 1.7 | 1.7 | 0.00 | 0.00 | 0.00 | 40 | 1018.3 |
| 20260502130335 | 45 | 152 | 0.0 | 0.0 | 0.00 | 0.00 | 0.00 | 62 | 1018.9 |
| 20260502123318 | 41 | 165 | 0.9 | 0.9 | 0.00 | 0.00 | 0.00 | 74 | 1018.8 |
| 20260502122815 | 40 | 124 | 0.9 | 1.7 | 0.00 | 0.00 | 0.00 | 75 | 1018.8 |
| 20260502122310 | 39 | 157 | 0.0 | 0.0 | 0.00 | 0.00 | 0.00 | 82 | 1018.7 |
| 20260502121809 | 38 | 162 | 0.0 | 0.0 | 0.00 | 0.00 | 0.00 | 87 | 1018.8 |
| 20260502121306 | 36 | 183 | 0.0 | 0.0 | 0.00 | 0.00 | 0.00 | 92 | 1018.6 |
| 20260502120803 | 35 | 157 | 0.0 | 0.0 | 0.00 | 0.00 | 0.00 | 91 | 1018.9 |
| 20260502120259 | 35 | 155 | 0.0 | 0.0 | 0.00 | 0.00 | 0.00 | 91 | 1018.9 |
| 20260502115757 | 35 | 156 | 0.0 | 0.0 | 0.00 | 0.00 | 0.00 | 92 | 1018.8 |
| 20260502115254 | 34 | 155 | 0.0 | 0.0 | 0.00 | 0.00 | 0.00 | 92 | 1018.6 |
| 20260502114749 | 33 | 162 | 0.0 | 0.0 | 0.00 | 0.00 | 0.00 | 93 | 1018.6 |
| 20260502114247 | 33 | 158 | 0.0 | 0.0 | 0.00 | 0.00 | 0.00 | 92 | 1018.8 |
| 20260502113744 | 33 | 153 | 0.0 | 0.0 | 0.00 | 0.00 | 0.00 | 92 | 1018.8 |
| 20260502113242 | 32 | 147 | 0.0 | 0.0 | 0.00 | 0.00 | 0.00 | 92 | 1018.7 |
| 20260502112740 | 32 | 157 | 0.0 | 0.0 | 0.00 | 0.00 | 0.00 | 92 | 1018.6 |
| 20260502112237 | 32 | 157 | 0.0 | 0.0 | 0.00 | 0.00 | 0.00 | 92 | 1018.6 |
| 20260502111734 | 32 | 155 | 0.0 | 0.0 | 0.00 | 0.00 | 0.00 | 92 | 1018.6 |
| 20260502111231 | 32 | 151 | 0.0 | 0.0 | 0.00 | 0.00 | 0.00 | 91 | 1018.6 |
| 20260502110729 | 32 | 148 | 0.0 | 0.0 | 0.00 | 0.00 | 0.00 | 91 | 1018.7 |
| 20260502110226 | 32 | 156 | 0.0 | 0.0 | 0.00 | 0.00 | 0.00 | 92 | 1018.7 |
| 20260502105724 | 32 | 151 | 0.0 | 0.0 | 0.00 | 0.00 | 0.00 | 92 | 1018.8 |
| 20260502105220 | 32 | 151 | 0.0 | 0.0 | 0.00 | 0.00 | 0.00 | 91 | 1018.7 |
| 20260502104718 | 32 | 152 | 0.0 | 0.0 | 0.00 | 0.00 | 0.00 | 91 | 1018.7 |
| 20260502104215 | 32 | 156 | 0.0 | 0.0 | 0.00 | 0.00 | 0.00 | 91 | 1018.6 |
| 20260502103713 | 32 | 155 | 0.0 | 0.0 | 0.00 | 0.00 | 0.00 | 91 | 1018.5 |
| 20260502103211 | 33 | 155 | 0.0 | 0.0 | 0.00 | 0.00 | 0.00 | 91 | 1018.4 |
| 20260502102707 | 33 | 155 | 0.0 | 0.0 | 0.00 | 0.00 | 0.00 | 91 | 1018.7 |
| 20260502102204 | 33 | 151 | 0.0 | 0.0 | 0.00 | 0.00 | 0.00 | 91 | 1018.6 |
| 20260502101702 | 33 | 151 | 0.0 | 0.0 | 0.00 | 0.00 | 0.00 | 91 | 1018.7 |
| 20260502101200 | 33 | 151 | 0.0 | 0.0 | 0.00 | 0.00 | 0.00 | 91 | 1018.7 |
| 20260502100658 | 33 | 151 | 0.0 | 0.0 | 0.00 | 0.00 | 0.00 | 91 | 1018.6 |
| 20260502100156 | 34 | 153 | 0.0 | 0.0 | 0.00 | 0.00 | 0.00 | 91 | 1018.7 |
| 20260502091130 | 34 | 156 | 0.0 | 0.0 | 0.00 | 0.00 | 0.00 | 88 | 1018.5 |
| 20260502090627 | 34 | 150 | 0.0 | 0.0 | 0.00 | 0.00 | 0.00 | 88 | 1018.5 |
| 20260502090124 | 35 | 151 | 0.0 | 0.0 | 0.00 | 0.00 | 0.00 | 88 | 1018.5 |
| 20260502071521 | 35 | 157 | 0.0 | 0.0 | 0.00 | 0.00 | 0.00 | 86 | 1018.7 |
| 20260502071020 | 35 | 157 | 0.0 | 0.0 | 0.00 | 0.00 | 0.00 | 86 | 1018.8 |
| 20260502070517 | 35 | 157 | 0.0 | 0.0 | 0.00 | 0.00 | 0.00 | 86 | 1018.7 |
| 20260502070015 | 35 | 157 | 0.0 | 0.0 | 0.00 | 0.00 | 0.00 | 85 | 1018.8 |
| 20260502065514 | 35 | 156 | 0.0 | 0.0 | 0.00 | 0.00 | 0.00 | 85 | 1018.7 |
| 20260502065011 | 35 | 157 | 0.0 | 0.0 | 0.00 | 0.00 | 0.00 | 83 | 1018.7 |
| 20260502064509 | 35 | 157 | 0.0 | 0.0 | 0.00 | 0.00 | 0.00 | 82 | 1018.9 |
| 20260502064006 | 35 | 157 | 0.0 | 0.0 | 0.00 | 0.00 | 0.00 | 82 | 1018.9 |
| 20260502063504 | 35 | 156 | 0.0 | 0.0 | 0.00 | 0.00 | 0.00 | 83 | 1018.9 |
| 20260502063001 | 35 | 156 | 0.0 | 0.0 | 0.00 | 0.00 | 0.00 | 82 | 1018.8 |
| 20260502062458 | 36 | 156 | 0.0 | 0.0 | 0.00 | 0.00 | 0.00 | 83 | 1018.8 |
| 20260502061957 | 36 | 156 | 0.0 | 0.0 | 0.00 | 0.00 | 0.00 | 83 | 1018.8 |
| 20260502061454 | 36 | 157 | 0.0 | 0.0 | 0.00 | 0.00 | 0.00 | 83 | 1018.9 |
| 20260502060950 | 36 | 155 | 0.0 | 0.0 | 0.00 | 0.00 | 0.00 | 83 | 1018.7 |
| 20260502060446 | 36 | 155 | 0.0 | 0.0 | 0.00 | 0.00 | 0.00 | 83 | 1018.7 |
| 20260502055942 | 36 | 155 | 0.0 | 0.0 | 0.00 | 0.00 | 0.00 | 82 | 1018.9 |
| 20260502055440 | 37 | 155 | 0.0 | 0.0 | 0.00 | 0.00 | 0.00 | 82 | 1018.9 |
| 20260502054935 | 37 | 155 | 0.0 | 0.0 | 0.00 | 0.00 | 0.00 | 81 | 1018.8 |
| 20260502054432 | 37 | 153 | 0.0 | 0.0 | 0.00 | 0.00 | 0.00 | 79 | 1019.0 |
| 20260502053929 | 37 | 151 | 0.0 | 0.0 | 0.00 | 0.00 | 0.00 | 78 | 1018.9 |
| 20260502053426 | 37 | 155 | 0.0 | 0.0 | 0.00 | 0.00 | 0.00 | 74 | 1018.9 |
| 20260502052924 | 37 | 155 | 0.0 | 0.0 | 0.00 | 0.00 | 0.00 | 74 | 1018.9 |
| 20260502052422 | 38 | 155 | 0.0 | 0.0 | 0.00 | 0.00 | 0.00 | 74 | 1019.0 |
| 20260502051920 | 38 | 155 | 0.0 | 0.0 | 0.00 | 0.00 | 0.00 | 74 | 1018.9 |
| 20260502051418 | 38 | 156 | 0.0 | 0.0 | 0.00 | 0.00 | 0.00 | 73 | 1018.9 |
| 20260502050914 | 38 | 156 | 0.0 | 0.0 | 0.00 | 0.00 | 0.00 | 71 | 1018.8 |
| 20260502050411 | 39 | 156 | 0.0 | 0.0 | 0.00 | 0.00 | 0.00 | 70 | 1018.9 |
| 20260502045908 | 39 | 156 | 0.0 | 0.0 | 0.00 | 0.00 | 0.00 | 69 | 1018.7 |
| 20260502045405 | 39 | 156 | 0.0 | 0.0 | 0.00 | 0.00 | 0.00 | 67 | 1018.8 |
| 20260502044902 | 40 | 153 | 0.0 | 0.0 | 0.00 | 0.00 | 0.00 | 65 | 1018.9 |
| 20260502044357 | 40 | 160 | 0.0 | 0.0 | 0.00 | 0.00 | 0.00 | 64 | 1018.8 |
| 20260502043855 | 39 | 162 | 0.0 | 0.0 | 0.00 | 0.00 | 0.00 | 64 | 1018.7 |
| 20260502043352 | 39 | 156 | 0.0 | 0.0 | 0.00 | 0.00 | 0.00 | 66 | 1018.7 |
| 20260502042852 | 39 | 147 | 0.0 | 0.0 | 0.00 | 0.00 | 0.00 | 65 | 1018.7 |
| 20260502042349 | 40 | 155 | 0.0 | 0.0 | 0.00 | 0.00 | 0.00 | 65 | 1018.8 |
| 20260502041846 | 40 | 152 | 0.0 | 0.0 | 0.00 | 0.00 | 0.00 | 64 | 1018.8 |
| 20260502041343 | 40 | 150 | 0.0 | 0.0 | 0.00 | 0.00 | 0.00 | 63 | 1018.7 |
| 20260502040841 | 40 | 152 | 0.0 | 0.0 | 0.00 | 0.00 | 0.00 | 69 | 1018.8 |
| 20260502040338 | 41 | 151 | 0.0 | 0.0 | 0.00 | 0.00 | 0.00 | 67 | 1018.8 |
| 20260502035834 | 41 | 155 | 0.0 | 0.0 | 0.00 | 0.00 | 0.00 | 63 | 1018.7 |
| 20260502035331 | 42 | 155 | 0.0 | 0.0 | 0.00 | 0.00 | 0.00 | 60 | 1018.7 |
| 20260502034828 | 42 | 157 | 0.0 | 0.0 | 0.00 | 0.00 | 0.00 | 59 | 1018.8 |
| 20260502034326 | 42 | 157 | 0.0 | 0.0 | 0.00 | 0.00 | 0.00 | 58 | 1018.9 |
| 20260502033824 | 42 | 157 | 0.0 | 0.0 | 0.00 | 0.00 | 0.00 | 58 | 1019.0 |
| 20260502033322 | 43 | 146 | 0.0 | 0.0 | 0.00 | 0.00 | 0.00 | 60 | 1018.8 |
| 20260502032818 | 43 | 159 | 0.0 | 0.0 | 0.00 | 0.00 | 0.00 | 56 | 1018.8 |
| 20260502032314 | 43 | 159 | 0.0 | 0.0 | 0.00 | 0.00 | 0.00 | 55 | 1018.9 |
| 20260502031812 | 43 | 151 | 0.0 | 0.0 | 0.00 | 0.00 | 0.00 | 56 | 1018.9 |
| 20260502031310 | 43 | 160 | 0.0 | 0.0 | 0.00 | 0.00 | 0.00 | 54 | 1019.0 |
| 20260502030808 | 43 | 163 | 0.0 | 0.0 | 0.00 | 0.00 | 0.00 | 56 | 1018.7 |
| 20260502030306 | 43 | 149 | 0.0 | 0.0 | 0.00 | 0.00 | 0.00 | 58 | 1018.8 |
| 20260502025803 | 43 | 130 | 0.9 | 0.9 | 0.00 | 0.00 | 0.00 | 58 | 1018.9 |
| 20260502025301 | 42 | 157 | 0.0 | 0.0 | 0.00 | 0.00 | 0.00 | 60 | 1018.9 |
| 20260502024758 | 42 | 152 | 0.0 | 0.0 | 0.00 | 0.00 | 0.00 | 62 | 1018.8 |
| 20260502024256 | 42 | 154 | 0.0 | 0.0 | 0.00 | 0.00 | 0.00 | 59 | 1018.8 |
| 20260502023754 | 42 | 150 | 0.0 | 0.0 | 0.00 | 0.00 | 0.00 | 62 | 1018.8 |
| 20260502023251 | 43 | 146 | 0.0 | 0.0 | 0.00 | 0.00 | 0.00 | 62 | 1018.8 |
| 20260502022749 | 43 | 145 | 0.0 | 0.0 | 0.00 | 0.00 | 0.00 | 60 | 1018.8 |
| 20260502022245 | 43 | 149 | 0.0 | 0.0 | 0.00 | 0.00 | 0.00 | 55 | 1018.7 |
| 20260502021742 | 44 | 152 | 0.0 | 0.0 | 0.00 | 0.00 | 0.00 | 54 | 1018.8 |
| 20260502021240 | 44 | 150 | 0.0 | 0.0 | 0.00 | 0.00 | 0.00 | 55 | 1018.7 |
| 20260502020737 | 45 | 149 | 0.0 | 0.0 | 0.00 | 0.00 | 0.00 | 56 | 1018.6 |
| 20260502020234 | 45 | 147 | 0.0 | 0.0 | 0.00 | 0.00 | 0.00 | 55 | 1018.7 |
| 20260502015732 | 45 | 161 | 0.0 | 0.0 | 0.00 | 0.00 | 0.00 | 57 | 1018.6 |
| 20260502015227 | 46 | 154 | 0.0 | 0.0 | 0.00 | 0.00 | 0.00 | 53 | 1018.7 |
| 20260502014725 | 46 | 154 | 0.0 | 0.0 | 0.00 | 0.00 | 0.00 | 48 | 1018.4 |
| 20260502014222 | 46 | 159 | 0.0 | 0.0 | 0.00 | 0.00 | 0.00 | 50 | 1018.4 |